Time;durP1;ratioP1;P1;durP2;ratioP2;P2;SDS_P1;SDS_P2;PMS_P1;PMS_P2;Temp;Humidity;BMP_temperature;BMP_pressure;BME280_temperature;BME280_humidity;BME280_pressure;Samples;Min_cycle;Max_cycle;Signal;HPM_P1;HPM_P2
2022/05/24 00:00:12;;;;;;;26.73;12.70;;;;;;;;;;5108610;27;20537;-73
2022/05/24 00:02:38;;;;;;;23.50;13.55;;;;;;;;;;5114615;27;20295;-72
2022/05/24 00:05:04;;;;;;;26.52;13.30;;;;;;;;;;5111547;27;20189;-71
2022/05/24 00:07:31;;;;;;;21.92;12.73;;;;;;;;;;5107408;28;20200;-73
2022/05/24 00:09:57;;;;;;;17.50;12.68;;;;;;;;;;5114700;27;20227;-71
2022/05/24 00:12:25;;;;;;;26.48;13.65;;;;;;;;;;5125877;27;20191;-71
2022/05/24 00:17:36;;;;;;;22.83;15.02;;;;;;;;;;5107143;28;20571;-73
2022/05/24 00:20:03;;;;;;;24.75;14.75;;;;;;;;;;5117715;27;20188;-72
2022/05/24 00:22:29;;;;;;;25.67;13.65;;;;;;;;;;5108331;27;20235;-72
2022/05/24 00:25:01;;;;;;;23.15;14.43;;;;;;;;;;5116495;27;20223;-73
2022/05/24 00:27:30;;;;;;;24.90;12.18;;;;;;;;;;5111658;27;20661;-73
2022/05/24 00:29:57;;;;;;;26.95;13.90;;;;;;;;;;5119462;27;20563;-70
2022/05/24 00:32:23;;;;;;;19.30;14.20;;;;;;;;;;5123648;27;20189;-73
2022/05/24 00:34:49;;;;;;;21.38;14.98;;;;;;;;;;5110723;27;20186;-76
2022/05/24 00:37:16;;;;;;;20.80;12.50;;;;;;;;;;5116456;27;20200;-72
2022/05/24 00:39:47;;;;;;;18.50;10.40;;;;;;;;;;5115265;27;20328;-73
2022/05/24 00:42:16;;;;;;;23.50;12.77;;;;;;;;;;5094872;28;20225;-72
2022/05/24 00:45:01;;;;;;;25.10;12.63;;;;;;;;;;5107753;27;20220;-74
2022/05/24 00:47:39;;;;;;;20.02;11.43;;;;;;;;;;5116566;27;20184;-71
2022/05/24 00:50:08;;;;;;;18.90;12.35;;;;;;;;;;5122188;27;20173;-71
2022/05/24 00:52:54;;;;;;;30.67;12.15;;;;;;;;;;5117698;27;20193;-70
2022/05/24 00:55:22;;;;;;;24.58;11.80;;;;;;;;;;5112287;27;20199;-76
2022/05/24 00:58:08;;;;;;;23.85;12.15;;;;;;;;;;5110650;27;20186;-73
2022/05/24 01:00:37;;;;;;;18.23;11.55;;;;;;;;;;5131173;27;20185;-73
2022/05/24 01:03:03;;;;;;;18.08;10.40;;;;;;;;;;5127685;27;20664;-72
2022/05/24 01:05:31;;;;;;;23.98;10.00;;;;;;;;;;5112746;27;20665;-74
2022/05/24 01:07:57;;;;;;;18.80;9.55;;;;;;;;;;5108557;28;20543;-72
2022/05/24 01:10:35;;;;;;;20.63;10.75;;;;;;;;;;5116350;27;20660;-72
2022/05/24 01:13:04;;;;;;;21.75;9.48;;;;;;;;;;5110071;27;20341;-74
2022/05/24 01:15:31;;;;;;;24.05;10.23;;;;;;;;;;5105511;28;20238;-75
2022/05/24 01:17:58;;;;;;;17.40;8.57;;;;;;;;;;5113352;27;20253;-71
2022/05/24 01:20:25;;;;;;;22.52;8.93;;;;;;;;;;5109054;27;20265;-71
2022/05/24 01:23:09;;;;;;;19.70;7.95;;;;;;;;;;5122973;27;20669;-71
2022/05/24 01:25:38;;;;;;;23.23;8.25;;;;;;;;;;5110604;27;20184;-72
2022/05/24 01:28:17;;;;;;;19.65;8.98;;;;;;;;;;5110096;27;20186;-73
2022/05/24 01:30:43;;;;;;;29.73;9.40;;;;;;;;;;5122908;27;20184;-75
2022/05/24 01:36:13;;;;;;;30.95;9.50;;;;;;;;;;5117175;27;20192;-73
2022/05/24 01:38:50;;;;;;;32.85;8.65;;;;;;;;;;5117173;27;20198;-71
2022/05/24 01:41:29;;;;;;;30.73;7.88;;;;;;;;;;5117443;27;20764;-72
2022/05/24 01:43:58;;;;;;;30.02;7.97;;;;;;;;;;5110162;27;20224;-70
2022/05/24 01:46:27;;;;;;;34.95;7.78;;;;;;;;;;5108296;28;20256;-71
2022/05/24 01:48:55;;;;;;;32.45;8.70;;;;;;;;;;5111310;27;20193;-70
2022/05/24 01:51:23;;;;;;;41.50;7.88;;;;;;;;;;5120256;27;20645;-74
2022/05/24 01:53:53;;;;;;;35.38;7.60;;;;;;;;;;5109830;28;20189;-73
2022/05/24 01:56:21;;;;;;;28.70;7.03;;;;;;;;;;5112840;28;20185;-71
2022/05/24 01:58:52;;;;;;;40.88;7.50;;;;;;;;;;5109337;28;20196;-74
2022/05/24 02:01:37;;;;;;;22.27;5.35;;;;;;;;;;5115216;28;20189;-74
2022/05/24 02:04:04;;;;;;;23.65;5.90;;;;;;;;;;5105873;28;20544;-72
2022/05/24 02:06:31;;;;;;;30.58;6.55;;;;;;;;;;5119013;28;20682;-75
2022/05/24 02:08:57;;;;;;;28.63;6.85;;;;;;;;;;5111605;28;20246;-71
2022/05/24 02:11:27;;;;;;;28.42;6.88;;;;;;;;;;5107332;28;20218;-70
2022/05/24 02:14:08;;;;;;;37.25;7.45;;;;;;;;;;5105865;28;20209;-74
2022/05/24 02:16:37;;;;;;;26.88;7.72;;;;;;;;;;5115224;28;20184;-74
2022/05/24 02:19:08;;;;;;;30.50;7.97;;;;;;;;;;5116376;28;20180;-75
2022/05/24 02:21:35;;;;;;;27.38;8.35;;;;;;;;;;5121958;28;20197;-73
2022/05/24 02:24:01;;;;;;;36.58;8.32;;;;;;;;;;5106592;28;20219;-73
2022/05/24 02:26:28;;;;;;;32.70;8.73;;;;;;;;;;5113379;28;20238;-73
2022/05/24 02:28:55;;;;;;;36.72;9.10;;;;;;;;;;5115915;28;20249;-71
2022/05/24 02:31:22;;;;;;;36.05;9.15;;;;;;;;;;5112395;28;20185;-73
2022/05/24 02:33:48;;;;;;;30.17;9.27;;;;;;;;;;5108126;28;20185;-75
2022/05/24 02:36:15;;;;;;;36.55;9.73;;;;;;;;;;5109985;27;20221;-75
2022/05/24 02:38:42;;;;;;;34.58;8.73;;;;;;;;;;5110001;27;20679;-74
2022/05/24 02:43:53;;;;;;;27.42;8.63;;;;;;;;;;5112742;27;20295;-72
2022/05/24 02:46:19;;;;;;;28.08;7.90;;;;;;;;;;5109346;27;20688;-73
2022/05/24 02:48:47;;;;;;;33.35;8.50;;;;;;;;;;5138626;27;20189;-74
2022/05/24 02:51:14;;;;;;;45.53;8.80;;;;;;;;;;5113032;27;20185;-74
2022/05/24 02:53:41;;;;;;;32.47;8.30;;;;;;;;;;5116824;27;20196;-73
2022/05/24 02:56:07;;;;;;;42.88;8.40;;;;;;;;;;5110940;27;20178;-75
2022/05/24 02:58:34;;;;;;;34.80;8.52;;;;;;;;;;5125374;27;20188;-73
2022/05/24 03:01:01;;;;;;;44.65;8.40;;;;;;;;;;5097534;28;20185;-75
2022/05/24 03:03:27;;;;;;;42.63;7.32;;;;;;;;;;5118686;27;20212;-70
2022/05/24 03:05:53;;;;;;;32.15;7.35;;;;;;;;;;5113734;27;21074;-69
2022/05/24 03:11:05;;;;;;;34.08;5.90;;;;;;;;;;5110659;28;20284;-71
2022/05/24 03:16:17;;;;;;;19.23;4.20;;;;;;;;;;5115514;27;20204;-73
2022/05/24 03:18:43;;;;;;;22.27;4.63;;;;;;;;;;5111680;27;20555;-72
2022/05/24 03:21:09;;;;;;;20.60;4.40;;;;;;;;;;5118332;27;20553;-69
2022/05/24 03:23:36;;;;;;;12.50;3.47;;;;;;;;;;5118787;27;20234;-73
2022/05/24 03:26:02;;;;;;;21.80;3.92;;;;;;;;;;5113122;27;20199;-72
2022/05/24 03:28:28;;;;;;;17.70;3.78;;;;;;;;;;5120738;27;20709;-73
2022/05/24 03:30:55;;;;;;;20.65;4.40;;;;;;;;;;5109992;27;20541;-74
2022/05/24 03:33:21;;;;;;;17.50;3.90;;;;;;;;;;5121808;27;20219;-73
2022/05/24 03:35:47;;;;;;;13.25;3.47;;;;;;;;;;5114364;27;20209;-73
2022/05/24 03:38:13;;;;;;;17.67;4.38;;;;;;;;;;5110402;27;20185;-76
2022/05/24 03:40:39;;;;;;;14.10;4.05;;;;;;;;;;5113137;27;20193;-72
2022/05/24 03:43:10;;;;;;;13.38;4.32;;;;;;;;;;5122145;27;20212;-70
2022/05/24 03:45:37;;;;;;;17.75;4.55;;;;;;;;;;5111492;27;20559;-73
2022/05/24 03:48:03;;;;;;;16.27;4.70;;;;;;;;;;5123220;27;20177;-75
2022/05/24 03:50:29;;;;;;;16.75;5.15;;;;;;;;;;5109164;27;20177;-73
2022/05/24 03:52:56;;;;;;;15.40;4.88;;;;;;;;;;5118044;27;20267;-71
2022/05/24 03:55:22;;;;;;;16.50;4.57;;;;;;;;;;5114160;27;20533;-74
2022/05/24 03:58:00;;;;;;;13.77;4.25;;;;;;;;;;5114421;27;20644;-70
2022/05/24 04:00:29;;;;;;;10.23;3.90;;;;;;;;;;5111248;27;20192;-71
2022/05/24 04:02:56;;;;;;;14.65;3.35;;;;;;;;;;5109557;27;20626;-75
2022/05/24 04:05:22;;;;;;;16.67;3.80;;;;;;;;;;5109789;27;20193;-72
2022/05/24 04:07:48;;;;;;;11.88;3.53;;;;;;;;;;5116577;27;20181;-72
2022/05/24 04:10:15;;;;;;;15.45;3.45;;;;;;;;;;5116059;27;20182;-72
2022/05/24 04:12:41;;;;;;;9.27;3.30;;;;;;;;;;5112295;27;20184;-70
2022/05/24 04:15:07;;;;;;;14.63;3.45;;;;;;;;;;5112774;27;20664;-73
2022/05/24 04:17:34;;;;;;;14.82;4.00;;;;;;;;;;5122386;27;20621;-75
2022/05/24 04:20:00;;;;;;;16.38;4.43;;;;;;;;;;5116628;27;20279;-72
2022/05/24 04:22:26;;;;;;;20.13;4.45;;;;;;;;;;5109294;28;20193;-72
2022/05/24 04:24:52;;;;;;;26.15;4.78;;;;;;;;;;5112259;27;20192;-71
2022/05/24 04:27:18;;;;;;;17.23;4.82;;;;;;;;;;5126781;27;20180;-72
2022/05/24 04:29:44;;;;;;;19.30;5.68;;;;;;;;;;5115802;27;20185;-70
2022/05/24 04:32:11;;;;;;;19.77;4.70;;;;;;;;;;5120591;27;20217;-72
2022/05/24 04:34:37;;;;;;;17.02;4.78;;;;;;;;;;5111597;27;20185;-75
2022/05/24 04:37:07;;;;;;;21.30;4.90;;;;;;;;;;5114663;27;21053;-71
2022/05/24 04:39:33;;;;;;;29.38;5.65;;;;;;;;;;5118636;27;20185;-71
2022/05/24 04:42:19;;;;;;;23.17;5.45;;;;;;;;;;5114264;27;20209;-74
2022/05/24 04:44:50;;;;;;;19.65;4.93;;;;;;;;;;5110558;27;20212;-73
2022/05/24 04:47:16;;;;;;;19.10;5.28;;;;;;;;;;5116740;27;20181;-72
2022/05/24 04:49:44;;;;;;;23.17;4.95;;;;;;;;;;5114152;27;20280;-73
2022/05/24 04:52:12;;;;;;;15.32;5.13;;;;;;;;;;5113352;27;20552;-76
2022/05/24 04:54:39;;;;;;;19.30;3.85;;;;;;;;;;5108159;27;20286;-74
2022/05/24 04:57:07;;;;;;;21.08;4.53;;;;;;;;;;5094620;27;20196;-75
2022/05/24 04:59:33;;;;;;;20.10;5.28;;;;;;;;;;5110477;27;20212;-73
2022/05/24 05:02:00;;;;;;;23.58;5.07;;;;;;;;;;5118497;27;20255;-73
2022/05/24 05:04:26;;;;;;;24.73;5.18;;;;;;;;;;5097883;27;20244;-75
2022/05/24 05:06:52;;;;;;;19.27;4.30;;;;;;;;;;5127731;27;20189;-73
2022/05/24 05:09:19;;;;;;;17.45;4.68;;;;;;;;;;5118750;27;20219;-72
2022/05/24 05:11:45;;;;;;;18.10;4.50;;;;;;;;;;5105841;28;20268;-74
2022/05/24 05:14:11;;;;;;;22.00;4.65;;;;;;;;;;5114890;27;20197;-71
2022/05/24 05:16:38;;;;;;;28.58;5.22;;;;;;;;;;5105185;27;20177;-72
2022/05/24 05:19:05;;;;;;;20.45;3.92;;;;;;;;;;5116976;27;20193;-71
2022/05/24 05:21:32;;;;;;;24.23;4.95;;;;;;;;;;5109035;28;20189;-73
2022/05/24 05:23:58;;;;;;;15.48;3.97;;;;;;;;;;5107436;28;20546;-71
2022/05/24 05:26:24;;;;;;;13.65;4.03;;;;;;;;;;5107777;28;20193;-71
2022/05/24 05:28:51;;;;;;;12.13;3.75;;;;;;;;;;5117796;27;20177;-73
2022/05/24 05:31:22;;;;;;;23.05;4.00;;;;;;;;;;5106262;28;20193;-70
2022/05/24 05:33:49;;;;;;;14.68;4.10;;;;;;;;;;5107229;28;20201;-73
2022/05/24 05:36:15;;;;;;;8.82;2.72;;;;;;;;;;5107660;28;20202;-71
2022/05/24 05:38:45;;;;;;;13.18;3.40;;;;;;;;;;5110063;27;20227;-70
2022/05/24 05:41:12;;;;;;;13.40;3.75;;;;;;;;;;5104642;28;20296;-71
2022/05/24 05:43:38;;;;;;;14.48;3.95;;;;;;;;;;5108666;28;20216;-70
2022/05/24 05:46:05;;;;;;;16.17;3.80;;;;;;;;;;5106613;28;20181;-74
2022/05/24 05:48:31;;;;;;;21.80;3.80;;;;;;;;;;5106428;28;20187;-70
2022/05/24 05:50:57;;;;;;;19.38;4.45;;;;;;;;;;5108728;28;20181;-72
2022/05/24 05:53:23;;;;;;;11.63;3.85;;;;;;;;;;5108753;28;20203;-69
2022/05/24 05:55:49;;;;;;;13.20;4.20;;;;;;;;;;5119195;27;20196;-73
2022/05/24 05:58:16;;;;;;;8.65;3.10;;;;;;;;;;5108863;28;20189;-70
2022/05/24 06:00:42;;;;;;;14.68;3.40;;;;;;;;;;5109257;28;20589;-74
2022/05/24 06:03:09;;;;;;;8.63;3.10;;;;;;;;;;5108782;28;20208;-73
2022/05/24 06:05:35;;;;;;;15.25;3.10;;;;;;;;;;5115916;28;20555;-71
2022/05/24 06:08:02;;;;;;;11.48;3.25;;;;;;;;;;5103745;28;20177;-71
2022/05/24 06:10:28;;;;;;;14.43;2.88;;;;;;;;;;5114038;27;20271;-72
2022/05/24 06:12:57;;;;;;;13.73;3.20;;;;;;;;;;5111649;27;20212;-70
2022/05/24 06:15:27;;;;;;;10.38;2.20;;;;;;;;;;5115103;27;20244;-74
2022/05/24 06:17:53;;;;;;;30.73;3.58;;;;;;;;;;5113307;28;20264;-75
2022/05/24 06:20:22;;;;;;;9.45;2.53;;;;;;;;;;5112378;27;20546;-76
2022/05/24 06:22:49;;;;;;;7.68;2.97;;;;;;;;;;5111213;28;20257;-72
2022/05/24 06:25:16;;;;;;;11.52;3.20;;;;;;;;;;5108113;28;20181;-72
2022/05/24 06:27:42;;;;;;;11.63;3.10;;;;;;;;;;5119166;27;20177;-71
2022/05/24 06:30:11;;;;;;;13.07;3.40;;;;;;;;;;5108411;28;20173;-71
2022/05/24 06:32:37;;;;;;;12.90;3.15;;;;;;;;;;5112288;27;20185;-72
2022/05/24 06:35:05;;;;;;;11.00;3.47;;;;;;;;;;5110806;27;20177;-73
2022/05/24 06:37:31;;;;;;;14.82;3.33;;;;;;;;;;5107138;28;20219;-72
2022/05/24 06:39:57;;;;;;;11.75;2.60;;;;;;;;;;5105623;27;20218;-75
2022/05/24 06:42:23;;;;;;;9.55;2.88;;;;;;;;;;5111864;27;20223;-71
2022/05/24 06:44:50;;;;;;;10.02;3.00;;;;;;;;;;5109855;28;20197;-74
2022/05/24 06:47:17;;;;;;;5.65;2.42;;;;;;;;;;5112600;28;20234;-69
2022/05/24 06:49:43;;;;;;;11.43;2.38;;;;;;;;;;5105567;28;20183;-70
2022/05/24 06:52:09;;;;;;;10.18;3.13;;;;;;;;;;5110137;28;20189;-71
2022/05/24 06:54:35;;;;;;;9.75;2.47;;;;;;;;;;5107525;28;20234;-71
2022/05/24 06:57:02;;;;;;;10.60;2.58;;;;;;;;;;5110531;28;20258;-71
2022/05/24 07:02:25;;;;;;;8.32;1.80;;;;;;;;;;5112807;27;20181;-71
2022/05/24 07:04:58;;;;;;;7.93;1.75;;;;;;;;;;5108055;27;20216;-72
2022/05/24 07:07:24;;;;;;;7.28;2.05;;;;;;;;;;5115987;27;20181;-71
2022/05/24 07:09:51;;;;;;;12.35;2.63;;;;;;;;;;5112658;27;20566;-72
2022/05/24 07:12:18;;;;;;;10.65;2.88;;;;;;;;;;5108415;28;20189;-70
2022/05/24 07:14:44;;;;;;;5.93;2.30;;;;;;;;;;5116269;27;20242;-71
2022/05/24 07:17:10;;;;;;;8.15;2.90;;;;;;;;;;5114389;27;20228;-76
2022/05/24 07:19:38;;;;;;;5.80;2.40;;;;;;;;;;5114670;27;20188;-75
2022/05/24 07:22:05;;;;;;;7.80;2.38;;;;;;;;;;5126051;27;20307;-71
2022/05/24 07:24:31;;;;;;;5.75;2.20;;;;;;;;;;5111762;27;20721;-76
2022/05/24 07:26:57;;;;;;;4.70;2.30;;;;;;;;;;5119603;27;20205;-75
2022/05/24 07:29:23;;;;;;;8.93;2.38;;;;;;;;;;5115647;27;20185;-73
2022/05/24 07:31:50;;;;;;;12.18;2.30;;;;;;;;;;5114829;27;20221;-75
2022/05/24 07:34:16;;;;;;;5.55;2.10;;;;;;;;;;5114093;27;20571;-71
2022/05/24 07:36:42;;;;;;;5.15;1.88;;;;;;;;;;5121692;27;20191;-74
2022/05/24 07:39:08;;;;;;;8.80;2.65;;;;;;;;;;5122556;27;20238;-76
2022/05/24 07:47:09;;;;;;;6.38;2.72;;;;;;;;;;5109891;27;20207;-72
2022/05/24 07:49:36;;;;;;;9.63;3.10;;;;;;;;;;5106497;27;20190;-72
2022/05/24 07:52:02;;;;;;;8.70;3.55;;;;;;;;;;5123966;27;20613;-73
2022/05/24 07:54:28;;;;;;;7.15;3.70;;;;;;;;;;5111137;27;20199;-72
2022/05/24 07:56:54;;;;;;;7.22;3.50;;;;;;;;;;5109964;27;20200;-71
2022/05/24 07:59:21;;;;;;;7.63;3.05;;;;;;;;;;5122674;27;20180;-76
2022/05/24 08:01:47;;;;;;;4.97;3.10;;;;;;;;;;5114008;27;20191;-74
2022/05/24 08:04:16;;;;;;;7.82;3.05;;;;;;;;;;5117752;27;20617;-74
2022/05/24 08:07:01;;;;;;;7.78;2.90;;;;;;;;;;5113439;27;20820;-74
2022/05/24 08:09:27;;;;;;;10.10;3.30;;;;;;;;;;5113278;27;20596;-62
2022/05/24 08:11:53;;;;;;;8.88;2.92;;;;;;;;;;5109137;27;20178;-74
2022/05/24 08:14:19;;;;;;;13.77;3.30;;;;;;;;;;5111158;27;20240;-73
2022/05/24 08:16:45;;;;;;;10.18;3.00;;;;;;;;;;5117120;27;20239;-74
2022/05/24 08:19:11;;;;;;;7.03;3.53;;;;;;;;;;5117919;27;20189;-71
2022/05/24 08:21:37;;;;;;;11.13;3.58;;;;;;;;;;5113968;27;20188;-75
2022/05/24 08:24:04;;;;;;;10.30;4.20;;;;;;;;;;5114665;27;20207;-72
2022/05/24 08:26:30;;;;;;;8.38;4.05;;;;;;;;;;5116349;27;20699;-74
2022/05/24 08:28:56;;;;;;;11.73;4.35;;;;;;;;;;5110260;27;20188;-75
2022/05/24 08:31:22;;;;;;;8.88;4.65;;;;;;;;;;5118963;27;20238;-72
2022/05/24 08:33:50;;;;;;;10.13;4.72;;;;;;;;;;5125834;27;20275;-75
2022/05/24 08:36:16;;;;;;;10.93;5.82;;;;;;;;;;5111538;27;20189;-74
2022/05/24 08:38:43;;;;;;;10.23;5.93;;;;;;;;;;5118153;27;20551;-73
2022/05/24 08:41:26;;;;;;;12.88;6.13;;;;;;;;;;5105715;27;20225;-74
2022/05/24 08:43:55;;;;;;;17.42;6.80;;;;;;;;;;5114617;27;20594;-72
2022/05/24 08:49:15;;;;;;;14.77;7.20;;;;;;;;;;5118763;27;20604;-73
2022/05/24 08:51:44;;;;;;;17.50;7.68;;;;;;;;;;5111376;27;20177;-72
2022/05/24 08:54:15;;;;;;;14.45;7.20;;;;;;;;;;5113745;27;20238;-74
2022/05/24 08:56:52;;;;;;;15.25;7.53;;;;;;;;;;5116407;27;20181;-72
2022/05/24 08:59:26;;;;;;;14.35;7.97;;;;;;;;;;5116150;27;20250;-74
2022/05/24 09:01:52;;;;;;;12.02;7.72;;;;;;;;;;5115921;27;20241;-73
2022/05/24 09:04:18;;;;;;;14.05;7.80;;;;;;;;;;5120495;27;20287;-71
2022/05/24 09:06:56;;;;;;;18.52;8.73;;;;;;;;;;5117962;27;20280;-71
2022/05/24 09:09:25;;;;;;;13.68;8.23;;;;;;;;;;5111081;27;20645;-72
2022/05/24 09:12:05;;;;;;;14.82;7.90;;;;;;;;;;5109962;27;20192;-74
2022/05/24 09:14:34;;;;;;;17.80;8.98;;;;;;;;;;5112098;27;20193;-72
2022/05/24 09:17:04;;;;;;;17.33;7.75;;;;;;;;;;5110289;27;21891;-74
2022/05/24 09:19:35;;;;;;;17.88;6.95;;;;;;;;;;5113229;27;20238;-70
2022/05/24 09:22:03;;;;;;;11.93;7.50;;;;;;;;;;5120869;27;20695;-72
2022/05/24 09:24:41;;;;;;;18.60;9.27;;;;;;;;;;5106207;27;20211;-75
2022/05/24 09:27:07;;;;;;;16.05;8.52;;;;;;;;;;5118197;27;20525;-74
2022/05/24 09:29:35;;;;;;;14.20;8.43;;;;;;;;;;5113496;27;20213;-76
2022/05/24 09:32:07;;;;;;;12.63;6.97;;;;;;;;;;5118427;27;20196;-74
2022/05/24 09:34:34;;;;;;;16.92;8.02;;;;;;;;;;5104328;28;20667;-72
2022/05/24 09:37:01;;;;;;;16.75;8.77;;;;;;;;;;5099963;27;20191;-76
2022/05/24 09:39:32;;;;;;;18.15;8.13;;;;;;;;;;5115146;27;20192;-73
2022/05/24 09:42:01;;;;;;;14.70;7.22;;;;;;;;;;5117264;27;20227;-74
2022/05/24 09:44:29;;;;;;;15.40;7.25;;;;;;;;;;5116903;27;20213;-72
2022/05/24 09:46:55;;;;;;;16.65;8.48;;;;;;;;;;5111737;28;20189;-76
2022/05/24 09:49:21;;;;;;;18.98;8.50;;;;;;;;;;5114662;27;20173;-76
2022/05/24 09:51:47;;;;;;;19.02;7.93;;;;;;;;;;5095631;28;20185;-70
2022/05/24 09:54:21;;;;;;;15.70;7.45;;;;;;;;;;5111487;27;20227;-71
2022/05/24 09:57:04;;;;;;;13.20;7.00;;;;;;;;;;5117499;27;20216;-75
2022/05/24 09:59:31;;;;;;;15.32;7.78;;;;;;;;;;5110330;28;20209;-74
2022/05/24 10:01:57;;;;;;;12.70;6.13;;;;;;;;;;5111946;28;20272;-76
2022/05/24 10:04:25;;;;;;;15.13;6.03;;;;;;;;;;5118473;28;20269;-74
2022/05/24 10:07:02;;;;;;;16.88;6.85;;;;;;;;;;5124753;28;20188;-74
2022/05/24 10:09:47;;;;;;;10.70;5.70;;;;;;;;;;5112364;28;20193;-74
2022/05/24 10:12:28;;;;;;;13.13;6.38;;;;;;;;;;5115266;28;20614;-74
2022/05/24 10:15:00;;;;;;;13.95;6.53;;;;;;;;;;5116335;28;20193;-76
2022/05/24 10:17:42;;;;;;;12.52;5.57;;;;;;;;;;5115996;28;20204;-75
2022/05/24 10:20:16;;;;;;;10.45;6.07;;;;;;;;;;5113278;28;20184;-77
2022/05/24 10:22:58;;;;;;;10.45;5.57;;;;;;;;;;5102768;28;20225;-73
2022/05/24 10:25:28;;;;;;;15.68;5.72;;;;;;;;;;5115623;28;20177;-76
2022/05/24 10:27:54;;;;;;;11.55;5.43;;;;;;;;;;5122167;28;20204;-76
2022/05/24 10:30:24;;;;;;;11.00;5.55;;;;;;;;;;5116128;28;20185;-79
2022/05/24 10:38:54;;;;;;;7.05;4.65;;;;;;;;;;5120806;28;20210;-81
2022/05/24 10:41:21;;;;;;;9.00;5.13;;;;;;;;;;5120163;28;20282;-79
2022/05/24 10:43:50;;;;;;;7.93;4.18;;;;;;;;;;5112466;28;20666;-81
2022/05/24 10:46:17;;;;;;;8.73;4.07;;;;;;;;;;5127195;27;20216;-79
2022/05/24 10:48:50;;;;;;;11.05;4.05;;;;;;;;;;5119966;28;20276;-80
2022/05/24 10:51:21;;;;;;;13.00;4.75;;;;;;;;;;5122861;28;20186;-79
2022/05/24 10:53:51;;;;;;;11.25;4.88;;;;;;;;;;5117195;28;20637;-78
2022/05/24 10:56:35;;;;;;;11.95;4.60;;;;;;;;;;5102383;28;20684;-82
2022/05/24 10:59:07;;;;;;;9.90;3.88;;;;;;;;;;5115604;27;20606;-81
2022/05/24 11:01:37;;;;;;;9.05;5.05;;;;;;;;;;5119815;27;20224;-79
2022/05/24 11:04:22;;;;;;;13.68;5.20;;;;;;;;;;5113854;27;20304;-80
2022/05/24 11:06:54;;;;;;;9.73;4.40;;;;;;;;;;5121432;27;20173;-81
2022/05/24 11:09:23;;;;;;;10.65;4.82;;;;;;;;;;5119362;27;20216;-82
2022/05/24 11:11:58;;;;;;;10.40;4.38;;;;;;;;;;5117854;27;20226;-80
2022/05/24 11:14:31;;;;;;;16.33;4.20;;;;;;;;;;5124144;27;20666;-78
2022/05/24 11:16:58;;;;;;;9.07;3.72;;;;;;;;;;5119281;27;20189;-77
2022/05/24 11:19:28;;;;;;;13.15;3.80;;;;;;;;;;5117489;27;20693;-79
2022/05/24 11:22:00;;;;;;;9.50;3.30;;;;;;;;;;5118334;27;20185;-73
2022/05/24 11:24:39;;;;;;;11.32;3.50;;;;;;;;;;5110824;27;20269;-75
2022/05/24 11:27:05;;;;;;;9.85;3.22;;;;;;;;;;5112823;27;20190;-75
2022/05/24 11:29:47;;;;;;;9.63;3.25;;;;;;;;;;5119478;27;20225;-80
2022/05/24 11:32:18;;;;;;;9.40;3.08;;;;;;;;;;5120610;27;20200;-80
2022/05/24 11:34:57;;;;;;;7.45;2.53;;;;;;;;;;5113610;27;20189;-79
2022/05/24 11:37:25;;;;;;;6.68;3.00;;;;;;;;;;5103512;27;20225;-77
2022/05/24 11:39:51;;;;;;;8.23;2.72;;;;;;;;;;5114518;27;20550;-76
2022/05/24 11:42:20;;;;;;;6.65;2.42;;;;;;;;;;5124855;27;20223;-78
2022/05/24 11:44:46;;;;;;;5.68;2.50;;;;;;;;;;5116046;27;20212;-79
2022/05/24 11:47:31;;;;;;;8.23;2.88;;;;;;;;;;5123747;27;20192;-78
2022/05/24 11:49:58;;;;;;;7.53;2.47;;;;;;;;;;5103680;27;20188;-79
2022/05/24 11:52:40;;;;;;;8.98;2.42;;;;;;;;;;5123509;27;20196;-76
2022/05/24 11:55:06;;;;;;;6.15;2.10;;;;;;;;;;5132483;27;20181;-74
2022/05/24 11:57:39;;;;;;;7.97;2.15;;;;;;;;;;5116620;27;20188;-78
2022/05/24 12:00:06;;;;;;;6.10;1.80;;;;;;;;;;5116099;27;20224;-77
2022/05/24 12:02:33;;;;;;;8.85;2.10;;;;;;;;;;5116132;27;20296;-76
2022/05/24 12:07:55;;;;;;;13.82;2.20;;;;;;;;;;5118764;27;20200;-75
2022/05/24 12:10:21;;;;;;;14.93;2.58;;;;;;;;;;5133441;27;20516;-77
2022/05/24 12:12:47;;;;;;;6.45;2.42;;;;;;;;;;5112461;27;20638;-75
2022/05/24 12:15:19;;;;;;;4.38;2.20;;;;;;;;;;5121622;27;20200;-74
2022/05/24 12:17:47;;;;;;;4.95;2.00;;;;;;;;;;5118287;27;20648;-76
2022/05/24 12:20:28;;;;;;;5.68;2.40;;;;;;;;;;5121666;27;20188;-76
2022/05/24 12:23:07;;;;;;;7.78;2.30;;;;;;;;;;5112337;27;20211;-74
2022/05/24 12:25:51;;;;;;;3.83;2.00;;;;;;;;;;5119029;27;20644;-76
2022/05/24 12:28:19;;;;;;;10.13;2.08;;;;;;;;;;5124590;27;20267;-77
2022/05/24 12:30:47;;;;;;;10.03;2.03;;;;;;;;;;5113267;27;20423;-75
2022/05/24 12:33:21;;;;;;;10.60;1.92;;;;;;;;;;5111177;27;20446;-77
2022/05/24 12:36:02;;;;;;;6.07;1.80;;;;;;;;;;5134027;27;20443;-76
2022/05/24 12:38:29;;;;;;;12.07;1.90;;;;;;;;;;5114971;27;20216;-75
2022/05/24 12:41:06;;;;;;;7.88;1.95;;;;;;;;;;5116111;27;20215;-77
2022/05/24 12:43:33;;;;;;;6.38;1.58;;;;;;;;;;5114407;27;20664;-77
2022/05/24 12:46:00;;;;;;;10.23;1.75;;;;;;;;;;5109651;27;20649;-74
2022/05/24 12:48:35;;;;;;;10.63;1.90;;;;;;;;;;5114171;27;20188;-74
2022/05/24 12:51:03;;;;;;;4.80;1.50;;;;;;;;;;5109074;28;20587;-75
2022/05/24 12:53:29;;;;;;;3.28;1.20;;;;;;;;;;5107035;27;20196;-74
2022/05/24 12:55:58;;;;;;;4.80;1.85;;;;;;;;;;5109513;27;20184;-75
2022/05/24 12:58:29;;;;;;;8.20;1.50;;;;;;;;;;5109512;27;20176;-74
2022/05/24 13:01:13;;;;;;;6.93;1.55;;;;;;;;;;5117970;27;20194;-77
2022/05/24 13:03:45;;;;;;;10.43;1.50;;;;;;;;;;5107182;28;20247;-73
2022/05/24 13:06:29;;;;;;;6.13;1.27;;;;;;;;;;5110464;27;20645;-71
2022/05/24 13:09:21;;;;;;;6.38;1.60;;;;;;;;;;5109108;27;20192;-73
2022/05/24 13:12:08;;;;;;;12.90;2.13;;;;;;;;;;5101095;27;20785;-72
2022/05/24 13:14:40;;;;;;;9.15;2.13;;;;;;;;;;5111419;27;20180;-78
2022/05/24 13:17:08;;;;;;;4.20;1.25;;;;;;;;;;5109265;28;20196;-71
2022/05/24 13:20:06;;;;;;;5.57;1.50;;;;;;;;;;5108315;28;20661;-73
2022/05/24 13:22:38;;;;;;;6.90;1.58;;;;;;;;;;5076596;28;20236;-74
2022/05/24 13:25:04;;;;;;;6.15;1.75;;;;;;;;;;5105849;27;20186;-73
2022/05/24 13:27:49;;;;;;;7.63;1.52;;;;;;;;;;5109098;28;20185;-73
2022/05/24 13:35:51;;;;;;;16.27;2.00;;;;;;;;;;5109972;28;20191;-73
2022/05/24 13:38:26;;;;;;;5.20;1.40;;;;;;;;;;5111806;27;20676;-71
2022/05/24 13:40:57;;;;;;;7.22;1.73;;;;;;;;;;5108112;28;20212;-74
2022/05/24 13:43:37;;;;;;;5.10;1.40;;;;;;;;;;5109244;27;20669;-74
2022/05/24 13:46:16;;;;;;;3.58;1.15;;;;;;;;;;5108522;28;20278;-75
2022/05/24 13:48:44;;;;;;;7.28;1.50;;;;;;;;;;5119829;27;20214;-74
2022/05/24 13:51:18;;;;;;;8.70;1.70;;;;;;;;;;5107564;28;20181;-76
2022/05/24 13:53:46;;;;;;;6.63;1.33;;;;;;;;;;5109302;27;20185;-73
2022/05/24 13:56:15;;;;;;;5.88;1.50;;;;;;;;;;5129421;27;20574;-74
2022/05/24 13:58:46;;;;;;;8.48;1.50;;;;;;;;;;5109246;28;20177;-77
2022/05/24 14:01:24;;;;;;;4.20;1.55;;;;;;;;;;5113311;27;20673;-71
2022/05/24 14:03:53;;;;;;;5.85;1.33;;;;;;;;;;5116760;28;20205;-77
2022/05/24 14:06:21;;;;;;;5.70;1.27;;;;;;;;;;5108984;28;20585;-74
2022/05/24 14:08:50;;;;;;;4.75;1.33;;;;;;;;;;5114462;28;20539;-76
2022/05/24 14:11:17;;;;;;;5.32;1.30;;;;;;;;;;5124478;28;20647;-73
2022/05/24 14:13:44;;;;;;;6.43;1.40;;;;;;;;;;5109843;28;20546;-77
2022/05/24 14:16:11;;;;;;;3.70;1.30;;;;;;;;;;5109384;28;20242;-73
2022/05/24 14:18:37;;;;;;;4.82;1.27;;;;;;;;;;5111419;28;20185;-73
2022/05/24 14:21:04;;;;;;;3.47;1.15;;;;;;;;;;5110159;28;20268;-75
2022/05/24 14:23:30;;;;;;;7.85;1.55;;;;;;;;;;5110954;28;20654;-73
2022/05/24 14:25:56;;;;;;;3.03;1.10;;;;;;;;;;5123826;28;20189;-71
2022/05/24 14:28:22;;;;;;;6.00;1.13;;;;;;;;;;5119990;28;20276;-76
2022/05/24 14:30:49;;;;;;;8.85;1.48;;;;;;;;;;5116722;28;20187;-73
2022/05/24 14:33:17;;;;;;;8.50;1.50;;;;;;;;;;5114716;27;20277;-72
2022/05/24 14:35:44;;;;;;;3.25;1.40;;;;;;;;;;5114052;27;20217;-75
2022/05/24 14:38:10;;;;;;;8.15;1.38;;;;;;;;;;5111626;27;20204;-66
2022/05/24 14:40:39;;;;;;;3.10;1.42;;;;;;;;;;5119295;27;20695;-73
2022/05/24 14:43:14;;;;;;;6.85;1.40;;;;;;;;;;5118928;27;22785;-76
2022/05/24 14:45:40;;;;;;;5.88;1.40;;;;;;;;;;5117556;27;20185;-72
2022/05/24 14:48:07;;;;;;;3.13;1.13;;;;;;;;;;5113710;27;20186;-74
2022/05/24 14:50:34;;;;;;;4.68;1.35;;;;;;;;;;5131464;27;20193;-73
2022/05/24 14:53:00;;;;;;;2.50;0.90;;;;;;;;;;5114682;27;20184;-74
2022/05/24 14:55:27;;;;;;;4.22;1.48;;;;;;;;;;5129046;27;20188;-72
2022/05/24 14:57:53;;;;;;;4.93;1.70;;;;;;;;;;5121241;27;20643;-76
2022/05/24 15:00:20;;;;;;;4.05;1.40;;;;;;;;;;5133774;27;20193;-72
2022/05/24 15:02:46;;;;;;;3.60;1.20;;;;;;;;;;5110737;27;20300;-74
2022/05/24 15:05:13;;;;;;;8.35;1.38;;;;;;;;;;5110947;27;20531;-75
2022/05/24 15:15:55;;;;;;;4.93;1.45;;;;;;;;;;5115878;27;20299;-72
2022/05/24 15:18:21;;;;;;;5.72;1.27;;;;;;;;;;5104214;27;20319;-72
2022/05/24 15:20:47;;;;;;;5.35;1.73;;;;;;;;;;5110181;28;20574;-73
2022/05/24 15:23:22;;;;;;;4.95;1.80;;;;;;;;;;5105550;28;20205;-72
2022/05/24 15:25:53;;;;;;;6.28;1.67;;;;;;;;;;5110915;28;20189;-75
2022/05/24 15:28:20;;;;;;;6.20;1.40;;;;;;;;;;5115194;27;20185;-71
2022/05/24 15:30:46;;;;;;;3.75;1.42;;;;;;;;;;5124869;27;20229;-74
2022/05/24 15:33:13;;;;;;;2.83;1.40;;;;;;;;;;5109042;27;20638;-71